createdAt,value
2017-12-16T00:00:00.975Z,"    0"
2017-12-16T00:04:56.663Z,"    0"
2017-12-16T00:09:52.141Z,"    0"
2017-12-16T00:14:48.083Z,"    0"
2017-12-16T00:19:43.708Z,"    0"
2017-12-16T00:24:40.379Z,"    0"
2017-12-16T00:29:35.557Z,"    0"
2017-12-16T00:34:31.715Z,"    0"
2017-12-16T00:39:27.716Z,"    0"
2017-12-16T00:44:24.189Z,"    0"
2017-12-16T00:49:19.711Z,"    0"
2017-12-16T00:54:18.210Z,"    0"
2017-12-16T00:59:14.074Z,"    0"
2017-12-16T01:04:09.795Z,"    0"
2017-12-16T01:09:06.499Z,"    0"
2017-12-16T01:14:01.676Z,"    0"
2017-12-16T01:18:57.399Z,"    0"
2017-12-16T01:23:53.388Z,"    0"
2017-12-16T01:28:49.096Z,"    0"
2017-12-16T01:33:45.643Z,"    0"
2017-12-16T01:38:42.506Z,"    0"
2017-12-16T01:43:37.697Z,"    0"
2017-12-16T01:48:34.292Z,"    0"
2017-12-16T01:53:29.694Z,"    0"
2017-12-16T01:58:25.498Z,"    0"
2017-12-16T02:03:21.021Z,"    0"
2017-12-16T02:08:16.901Z,"    0"
2017-12-16T02:13:12.456Z,"    0"
2017-12-16T02:18:08.318Z,"    0"
2017-12-16T02:23:05.009Z,"    0"
2017-12-16T02:28:00.396Z,"    0"
2017-12-16T02:32:56.125Z,"    0"
2017-12-16T02:37:51.939Z,"    0"
2017-12-16T02:42:47.655Z,"    0"
2017-12-16T02:47:44.154Z,"    0"
2017-12-16T02:52:39.696Z,"    0"
2017-12-16T02:57:35.496Z,"    0"
2017-12-16T03:02:32.096Z,"    0"
2017-12-16T03:07:28.478Z,"    0"
2017-12-16T03:12:23.893Z,"    0"
2017-12-16T03:17:19.651Z,"    0"
2017-12-16T03:22:15.195Z,"    0"
2017-12-16T03:27:11.679Z,"    0"
2017-12-16T03:32:07.512Z,"    0"
2017-12-16T03:37:03.758Z,"    0"
2017-12-16T03:41:59.327Z,"    0"
2017-12-16T03:46:54.853Z,"    0"
2017-12-16T03:51:52.271Z,"    0"
2017-12-16T03:56:48.799Z,"    0"
2017-12-16T04:01:45.265Z,"    0"
2017-12-16T04:06:40.798Z,"    0"
2017-12-16T04:11:37.392Z,"    0"
2017-12-16T04:16:32.704Z,"    0"
2017-12-16T04:21:29.025Z,"    0"
2017-12-16T04:26:24.770Z,"    0"
2017-12-16T04:31:20.528Z,"    0"
2017-12-16T04:36:17.124Z,"    0"
2017-12-16T04:41:13.202Z,"    0"
2017-12-16T04:46:09.864Z,"    0"
2017-12-16T04:51:06.954Z,"    0"
2017-12-16T04:56:04.183Z,"    0"
2017-12-16T05:01:00.489Z,"    0"
2017-12-16T05:05:55.862Z,"    0"
2017-12-16T05:10:51.609Z,"    0"
2017-12-16T05:15:47.291Z,"    0"
2017-12-16T05:20:44.069Z,"    0"
2017-12-16T05:25:40.131Z,"    0"
2017-12-16T05:30:36.203Z,"    0"
2017-12-16T05:35:31.763Z,"    0"
2017-12-16T05:40:27.417Z,"    0"
2017-12-16T05:45:23.288Z,"    0"
2017-12-16T05:50:19.254Z,"    0"
2017-12-16T05:55:14.695Z,"    0"
2017-12-16T06:00:09.915Z,"    0"
2017-12-16T06:05:06.727Z,"    0"
2017-12-16T06:10:02.076Z,"    0"
2017-12-16T06:14:58.866Z,"    0"
2017-12-16T06:19:54.270Z,"    0"
2017-12-16T06:24:49.810Z,"    0"
2017-12-16T06:29:46.598Z,"    0"
2017-12-16T06:34:42.053Z,"    0"
2017-12-16T06:39:38.295Z,"    0"
2017-12-16T06:44:33.840Z,"    0"
2017-12-16T06:49:29.379Z,"    0"
2017-12-16T06:54:25.023Z,"    0"
2017-12-16T06:59:20.675Z,"    4"
2017-12-16T07:04:16.548Z,"    8"
2017-12-16T07:09:12.286Z,"   12"
2017-12-16T07:14:08.775Z,"   24"
2017-12-16T07:19:04.876Z,"   48"
2017-12-16T07:24:00.363Z,"   88"
2017-12-16T07:28:57.066Z,"  132"
2017-12-16T07:33:52.571Z,"  188"
2017-12-16T07:38:48.041Z,"  256"
2017-12-16T07:43:43.605Z,"  344"
2017-12-16T07:48:39.124Z,"  440"
2017-12-16T07:53:35.044Z,"  560"
2017-12-16T07:58:32.592Z,"  720"
2017-12-16T08:03:29.066Z," 1000"
2017-12-16T08:08:25.686Z," 1136"
2017-12-16T08:13:22.322Z," 1232"
2017-12-16T08:18:17.710Z," 1704"
2017-12-16T08:23:13.442Z," 2116"
2017-12-16T08:28:09.499Z," 1520"
2017-12-16T08:33:05.304Z," 1580"
2017-12-16T08:38:01.123Z," 2152"
2017-12-16T08:42:57.174Z," 2176"
2017-12-16T08:47:53.764Z," 1916"
2017-12-16T08:52:49.428Z," 2032"
2017-12-16T08:57:45.012Z," 2392"
2017-12-16T09:02:40.802Z," 2676"
2017-12-16T09:07:38.346Z," 3912"
2017-12-16T09:12:34.108Z," 2996"
2017-12-16T09:17:29.990Z," 2776"
2017-12-16T09:22:27.033Z," 3072"
2017-12-16T09:27:22.961Z," 2896"
2017-12-16T09:32:18.354Z," 2776"
2017-12-16T09:37:15.108Z," 2916"
2017-12-16T09:42:11.391Z," 4196"
2017-12-16T09:47:08.323Z," 3952"
2017-12-16T09:52:04.309Z," 7532"
2017-12-16T09:57:01.056Z," 6112"
2017-12-16T10:01:58.495Z," 5308"
2017-12-16T10:06:54.353Z," 3304"
2017-12-16T10:11:51.103Z," 4712"
2017-12-16T10:16:46.131Z," 3332"
2017-12-16T10:21:41.742Z," 2740"
2017-12-16T10:26:38.248Z," 5316"
2017-12-16T10:31:33.938Z," 6044"
2017-12-16T10:36:30.540Z," 3456"
2017-12-16T10:41:27.000Z," 4340"
2017-12-16T10:46:22.604Z," 4816"
2017-12-16T10:51:18.848Z," 3376"
2017-12-16T10:56:14.862Z," 4180"
2017-12-16T11:01:11.546Z," 4144"
2017-12-16T11:06:07.012Z," 7732"
2017-12-16T11:11:04.426Z," 6948"
2017-12-16T11:16:00.188Z," 7448"
2017-12-16T11:20:57.486Z,10868
2017-12-16T11:25:53.434Z," 5424"
2017-12-16T11:30:50.031Z," 5156"
2017-12-16T11:35:46.568Z,11292
2017-12-16T11:40:43.166Z,11400
2017-12-16T11:45:40.169Z," 8992"
2017-12-16T11:50:36.122Z," 5068"
2017-12-16T11:55:31.539Z," 4028"
2017-12-16T12:00:27.349Z," 6844"
2017-12-16T12:05:24.061Z," 5720"
2017-12-16T12:10:19.468Z," 5404"
2017-12-16T12:15:14.850Z," 4600"
2017-12-16T12:20:10.762Z," 3912"
2017-12-16T12:25:07.520Z," 3828"
2017-12-16T12:30:02.964Z," 4092"
2017-12-16T12:35:00.252Z," 3936"
2017-12-16T12:39:55.468Z," 3560"
2017-12-16T12:44:51.007Z," 5048"
2017-12-16T12:49:46.873Z," 4592"
2017-12-16T12:54:42.668Z," 2952"
2017-12-16T12:59:38.285Z," 3548"
2017-12-16T13:04:34.633Z," 2980"
2017-12-16T13:09:31.159Z," 2976"
2017-12-16T13:14:26.532Z," 3880"
2017-12-16T13:19:22.272Z," 2964"
2017-12-16T13:24:18.180Z," 2588"
2017-12-16T13:29:13.869Z," 3144"
2017-12-16T13:34:09.994Z," 3348"
2017-12-16T13:39:05.639Z," 3720"
2017-12-16T13:44:01.478Z," 2332"
2017-12-16T13:48:58.289Z," 1588"
2017-12-16T13:53:54.225Z," 1984"
2017-12-16T13:58:49.886Z," 2028"
2017-12-16T14:03:45.624Z," 1496"
2017-12-16T14:08:42.273Z," 1576"
2017-12-16T14:13:37.556Z," 1112"
2017-12-16T14:18:34.186Z," 1308"
2017-12-16T14:23:29.722Z," 1320"
2017-12-16T14:28:25.476Z," 1104"
2017-12-16T14:33:22.821Z,"  992"
2017-12-16T14:38:18.118Z,"  740"
2017-12-16T14:43:14.077Z,"  788"
2017-12-16T14:48:10.759Z,"  480"
2017-12-16T14:53:07.880Z,"  444"
2017-12-16T14:58:02.970Z,"  380"
2017-12-16T15:02:58.914Z,"  260"
2017-12-16T15:07:54.669Z,"  200"
2017-12-16T15:12:50.573Z,"  160"
2017-12-16T15:17:47.240Z,"  124"
2017-12-16T15:22:42.704Z,"   80"
2017-12-16T15:27:38.456Z,"   44"
2017-12-16T15:32:34.224Z,"   16"
2017-12-16T15:37:30.752Z,"   12"
2017-12-16T15:42:26.339Z,"    8"
2017-12-16T15:47:22.435Z,"    4"
2017-12-16T15:52:19.039Z,"    4"
2017-12-16T15:57:14.840Z,"    0"
2017-12-16T16:02:10.675Z,"    0"
2017-12-16T16:07:06.447Z,"    0"
2017-12-16T16:12:01.802Z,"    0"
2017-12-16T16:16:57.436Z,"    0"
2017-12-16T16:21:54.368Z,"    0"
2017-12-16T16:26:49.488Z,"    0"
2017-12-16T16:31:46.600Z,"    0"
2017-12-16T16:36:43.438Z,"    0"
2017-12-16T16:41:40.821Z,"    0"
2017-12-16T16:46:36.168Z,"    0"
2017-12-16T16:51:33.196Z,"    0"
2017-12-16T16:56:29.738Z,"    0"
2017-12-16T17:01:26.025Z,"    0"
2017-12-16T17:06:22.309Z,"    0"
2017-12-16T17:11:17.873Z,"    0"
2017-12-16T17:16:13.516Z,"    0"
2017-12-16T17:21:09.294Z,"    0"
2017-12-16T17:26:05.929Z,"    0"
2017-12-16T17:31:01.252Z,"    0"
2017-12-16T17:35:57.980Z,"    0"
2017-12-16T17:40:53.458Z,"    0"
2017-12-16T17:45:49.363Z,"    0"
2017-12-16T17:50:46.363Z,"    0"
2017-12-16T17:55:41.922Z,"    0"
2017-12-16T18:00:37.482Z,"    0"
2017-12-16T18:05:33.222Z,"    0"
2017-12-16T18:10:29.040Z,"    0"
2017-12-16T18:15:24.982Z,"    0"
2017-12-16T18:20:20.931Z,"    0"
2017-12-16T18:25:16.274Z,"    0"
2017-12-16T18:30:12.519Z,"    0"
2017-12-16T18:35:09.159Z,"    0"
2017-12-16T18:40:05.366Z,"    0"
2017-12-16T18:45:02.226Z,"    0"
2017-12-16T18:49:57.614Z,"    0"
2017-12-16T18:54:54.674Z,"    0"
2017-12-16T18:59:50.166Z,"    0"
2017-12-16T19:04:46.256Z,"    0"
2017-12-16T19:09:42.936Z,"    0"
2017-12-16T19:14:38.431Z,"    0"
2017-12-16T19:19:35.161Z,"    0"
2017-12-16T19:24:30.732Z,"    0"
2017-12-16T19:29:27.358Z,"    0"
2017-12-16T19:34:22.938Z,"    0"
2017-12-16T19:39:18.541Z,"    0"
2017-12-16T19:44:14.044Z,"    0"
2017-12-16T19:49:10.249Z,"    0"
2017-12-16T19:54:07.926Z,"    0"
2017-12-16T19:59:04.223Z,"    0"
2017-12-16T20:04:00.602Z,"    0"
2017-12-16T20:08:56.303Z,"    0"
2017-12-16T20:13:51.951Z,"    0"
2017-12-16T20:18:49.052Z,"    0"
2017-12-16T20:23:44.405Z,"    0"
2017-12-16T20:28:39.836Z,"    0"
2017-12-16T20:33:35.582Z,"    0"
2017-12-16T20:38:31.921Z,"    0"
2017-12-16T20:43:29.327Z,"    0"
2017-12-16T20:48:24.422Z,"    0"
2017-12-16T20:53:21.965Z,"    0"
2017-12-16T20:58:17.355Z,"    0"
2017-12-16T21:03:12.831Z,"    0"
2017-12-16T21:08:08.608Z,"    0"
2017-12-16T21:13:05.318Z,"    0"
2017-12-16T21:18:03.470Z,"    0"
2017-12-16T21:22:59.908Z,"    0"
2017-12-16T21:27:56.260Z,"    0"
2017-12-16T21:32:52.666Z,"    0"
2017-12-16T21:37:49.060Z,"    0"
2017-12-16T21:42:46.187Z,"    0"
2017-12-16T21:47:41.544Z,"    0"
2017-12-16T21:52:36.966Z,"    0"
2017-12-16T21:57:32.724Z,"    0"
2017-12-16T22:02:29.278Z,"    0"
2017-12-16T22:07:24.629Z,"    0"
2017-12-16T22:12:20.181Z,"    0"
2017-12-16T22:17:15.974Z,"    0"
2017-12-16T22:22:11.664Z,"    0"
2017-12-16T22:27:07.540Z,"    0"
2017-12-16T22:32:03.638Z,"    0"
2017-12-16T22:36:59.615Z,"    0"
2017-12-16T22:41:55.297Z,"    0"
2017-12-16T22:46:52.033Z,"    0"
2017-12-16T22:51:47.376Z,"    0"
2017-12-16T22:56:43.010Z,"    0"
2017-12-16T23:01:39.557Z,"    0"
2017-12-16T23:06:35.269Z,"    0"
2017-12-16T23:11:30.837Z,"    0"
2017-12-16T23:16:27.495Z,"    0"
2017-12-16T23:21:22.991Z,"    0"
2017-12-16T23:26:18.161Z,"    0"
2017-12-16T23:31:14.774Z,"    0"
2017-12-16T23:36:11.270Z,"    0"
2017-12-16T23:41:06.569Z,"    0"
2017-12-16T23:46:02.599Z,"    0"
2017-12-16T23:50:58.351Z,"    0"
2017-12-16T23:55:55.135Z,"    0"
